createdAt,value
2019-04-28T00:06:57.062Z,75.6
2019-04-28T00:23:34.163Z,75.6
2019-04-28T00:40:11.502Z,75.6
2019-04-28T00:56:48.549Z,75.6
2019-04-28T01:13:25.804Z,75.6
2019-04-28T01:30:08.716Z,75.6
2019-04-28T01:46:40.232Z,76.0
2019-04-28T02:03:17.431Z,75.6
2019-04-28T02:19:54.597Z,75.6
2019-04-28T02:36:32.081Z,75.2
2019-04-28T02:53:10.977Z,75.2
2019-04-28T03:09:46.402Z,75.2
2019-04-28T03:26:23.470Z,75.2
2019-04-28T03:43:03.204Z,74.8
2019-04-28T03:59:37.833Z,74.8
2019-04-28T04:16:15.069Z,74.8
2019-04-28T04:32:52.291Z,75.2
2019-04-28T04:49:31.547Z,75.2
2019-04-28T05:06:06.766Z,74.8
2019-04-28T05:22:44.482Z,74.8
2019-04-28T05:39:21.574Z,74.8
2019-04-28T05:56:00.097Z,74.4
2019-04-28T06:12:37.583Z,74.0
2019-04-28T06:25:56.613Z,74.0
2019-04-28T06:42:35.533Z,73.6
2019-04-28T06:59:15.672Z,72.8
2019-04-28T07:15:54.067Z,72.0
2019-04-28T07:32:33.459Z,71.6
2019-04-28T07:49:13.038Z,71.2
2019-04-28T08:05:52.749Z,70.0
2019-04-28T08:22:32.634Z,68.8
2019-04-28T08:32:32.786Z,68.4
2019-04-28T08:49:13.565Z,67.6
2019-04-28T08:59:13.680Z,67.2
2019-04-28T09:09:13.609Z,67.6
2019-04-28T09:19:13.296Z,69.2
2019-04-28T09:35:53.455Z,70.8
2019-04-28T09:52:31.352Z,71.6
2019-04-28T10:02:31.197Z,71.2
2019-04-28T10:09:11.071Z,70.8
2019-04-28T10:19:11.620Z,69.2
2019-04-28T10:35:52.710Z,68.4
2019-04-28T10:52:34.409Z,66.8
2019-04-28T11:05:55.369Z,64.8
2019-04-28T11:09:16.511Z,64.8
2019-04-28T11:25:56.104Z,64.8
2019-04-28T11:29:16.392Z,64.0
2019-04-28T11:35:57.162Z,62.8
2019-04-28T11:42:37.972Z,60.8
2019-04-28T11:59:20.089Z,58.4
2019-04-28T12:06:01.057Z,60.0
2019-04-28T12:12:41.582Z,59.6
2019-04-28T12:26:03.065Z,60.4
2019-04-28T12:42:44.523Z,58.4
2019-04-28T12:59:26.223Z,59.2
2019-04-28T13:09:26.846Z,60.8
2019-04-28T13:16:07.110Z,61.6
2019-04-28T13:26:07.298Z,63.2
2019-04-28T13:39:27.407Z,64.0
2019-04-28T13:56:08.087Z,64.4
2019-04-28T14:09:28.852Z,64.0
2019-04-28T14:26:10.532Z,63.6
2019-04-28T14:42:52.086Z,64.0
2019-04-28T14:52:53.182Z,64.0
2019-04-28T15:09:35.079Z,62.8
2019-04-28T15:26:16.819Z,62.0
2019-04-28T15:42:57.719Z,62.8
2019-04-28T15:59:38.817Z,63.2
2019-04-28T16:16:19.872Z,64.0
2019-04-28T16:26:22.777Z,64.0
2019-04-28T16:36:21.034Z,62.8
2019-04-28T16:53:03.220Z,60.8
2019-04-28T17:03:04.917Z,59.2
2019-04-28T17:13:06.809Z,58.4
2019-04-28T17:23:07.974Z,60.0
2019-04-28T17:33:08.858Z,60.0
2019-04-28T17:39:49.295Z,60.0
2019-04-28T17:53:09.725Z,61.2
2019-04-28T18:09:49.800Z,61.2
2019-04-28T18:26:29.550Z,63.2
2019-04-28T18:43:08.726Z,64.4
2019-04-28T18:59:47.515Z,65.6
2019-04-28T19:16:26.203Z,65.6
2019-04-28T19:33:05.007Z,66.8
2019-04-28T19:49:43.266Z,68.0
2019-04-28T20:06:21.500Z,68.0
2019-04-28T20:22:59.552Z,68.8
2019-04-28T20:39:37.559Z,69.2
2019-04-28T20:56:15.358Z,70.4
2019-04-28T21:12:52.796Z,71.2
2019-04-28T21:29:30.503Z,71.6
2019-04-28T21:46:07.881Z,72.0
2019-04-28T22:02:45.354Z,72.8
2019-04-28T22:19:22.565Z,72.8
2019-04-28T22:35:59.643Z,73.2
2019-04-28T22:52:36.879Z,74.0
2019-04-28T23:09:13.504Z,74.0
2019-04-28T23:25:50.395Z,74.0
2019-04-28T23:42:26.678Z,74.0
2019-04-28T23:59:02.892Z,74.4
